Camargo, Spain
Current Conditions -  °F | °C
As of 9:30 PM on Wednesday 26 Nov 2014 (Local Time) from LEXJ Reporting Station
Broken Clouds Broken Clouds  
Wind Chill: 52°   Ceiling: 8200
Heat Index: 52°   Visibility: 6mi
Dew Point: 50°   Wind: 1mph
Humidity: 94%   Direction: 240°WSW
Pressure: 29.8"   Gusts: NA
Location:  43.41°N, 3.88°W
Report Text: LEXJ 262030Z 24001KT 9999 BKN082 11/10 Q1009
Loading
Personal Weather Stations






























Interactive Weather Map New forecast layout! Learn more

10-Day Weather Forecast

Advertisements
Track Severe Weather on mobile